Time;durP1;ratioP1;P1;durP2;ratioP2;P2;SDS_P1;SDS_P2;PMS_P1;PMS_P2;Temp;Humidity;BMP_temperature;BMP_pressure;BME280_temperature;BME280_humidity;BME280_pressure;Samples;Min_cycle;Max_cycle;Signal;HPM_P1;HPM_P2
2023/01/03 00:00:26;;;;;;;21.90;18.23;;;;;;;5.91;100.00;147536.28;5093711;28;20219;-59
2023/01/03 00:02:53;;;;;;;23.27;18.50;;;;;;;5.94;100.00;147543.81;5093478;28;20180;-59
2023/01/03 00:05:20;;;;;;;24.57;17.37;;;;;;;5.92;100.00;147538.81;5093954;28;20185;-60
2023/01/03 00:07:47;;;;;;;21.77;17.20;;;;;;;5.73;100.00;147490.88;5093692;28;20628;-60
2023/01/03 00:10:14;;;;;;;19.70;17.13;;;;;;;5.46;100.00;147422.94;5093202;28;20195;-58
2023/01/03 00:12:39;;;;;;;22.63;16.60;;;;;;;5.37;100.00;147400.28;5093287;28;20199;-58
2023/01/03 00:15:09;;;;;;;24.43;18.13;;;;;;;5.09;100.00;147329.81;5093013;28;20180;-60
2023/01/03 00:17:36;;;;;;;26.43;19.00;;;;;;;5.18;100.00;147353.69;5093228;28;20508;-58
2023/01/03 00:20:03;;;;;;;27.30;19.03;;;;;;;5.16;100.00;147348.69;5093073;28;20261;-60
2023/01/03 00:22:31;;;;;;;24.57;19.47;;;;;;;5.53;100.00;147440.53;5093420;28;20650;-59
2023/01/03 00:24:58;;;;;;;28.63;20.23;;;;;;;5.68;100.00;131968.81;5093277;28;20539;-59
2023/01/03 00:27:25;;;;;;;23.87;19.30;;;;;;;5.83;100.00;111616.00;5093026;28;20591;-59
2023/01/03 00:29:52;;;;;;;22.23;18.40;;;;;;;5.87;100.00;117200.38;5092908;28;20180;-59
2023/01/03 00:32:20;;;;;;;24.67;20.33;;;;;;;5.86;100.00;131082.44;5093099;28;20195;-59
2023/01/03 00:34:47;;;;;;;23.53;19.77;;;;;;;5.98;100.00;147414.19;5093065;28;20627;-59
2023/01/03 00:37:15;;;;;;;23.27;18.40;;;;;;;6.02;100.00;147561.47;5093056;28;20200;-59
2023/01/03 00:39:42;;;;;;;29.70;20.67;;;;;;;6.06;100.00;147123.97;5092958;28;20294;-58
2023/01/03 00:42:09;;;;;;;35.90;25.20;;;;;;;6.14;100.00;130919.97;5092950;28;20184;-58
2023/01/03 00:44:36;;;;;;;51.00;29.23;;;;;;;5.94;100.00;134588.44;5092833;28;20204;-57
2023/01/03 00:47:03;;;;;;;29.50;18.33;;;;;;;6.06;100.00;146893.75;5091392;28;20188;-59
2023/01/03 00:49:32;;;;;;;30.40;21.20;;;;;;;6.01;100.00;147558.94;5092744;28;20551;-58
2023/01/03 00:51:58;;;;;;;31.20;25.07;;;;;;;5.97;100.00;147550.13;5092802;28;20180;-58
2023/01/03 00:54:25;;;;;;;26.47;19.80;;;;;;;6.02;100.00;145669.47;5092376;28;20567;-58
2023/01/03 00:56:53;;;;;;;24.00;18.77;;;;;;;5.95;100.00;147546.34;5092362;28;20188;-59
2023/01/03 00:59:21;;;;;;;26.27;21.53;;;;;;;5.91;100.00;147535.00;5092256;28;20220;-59
2023/01/03 01:01:49;;;;;;;28.37;21.67;;;;;;;5.75;100.00;147495.94;5092560;28;20234;-59
2023/01/03 01:04:20;;;;;;;23.93;19.57;;;;;;;5.86;100.00;147523.66;5092771;28;20575;-58
2023/01/03 01:06:50;;;;;;;30.30;21.63;;;;;;;5.81;100.00;147511.03;5092121;28;20188;-59
2023/01/03 01:09:20;;;;;;;35.90;19.50;;;;;;;5.81;100.00;147509.81;5092168;28;20191;-59
2023/01/03 01:11:47;;;;;;;25.53;17.87;;;;;;;5.66;100.00;147473.28;5092481;28;20558;-58
2023/01/03 01:14:20;;;;;;;25.17;20.17;;;;;;;5.44;100.00;147419.13;5092395;28;20563;-58
2023/01/03 01:16:49;;;;;;;27.03;18.90;;;;;;;5.19;100.00;147354.94;5092336;28;20563;-60
2023/01/03 01:19:16;;;;;;;24.50;19.97;;;;;;;5.16;100.00;147348.69;5092257;28;20575;-59
2023/01/03 01:21:44;;;;;;;36.27;23.87;;;;;;;5.25;100.00;147371.34;5092265;28;20662;-59
2023/01/03 01:24:13;;;;;;;34.27;23.87;;;;;;;4.93;100.00;147292.03;5092253;28;20617;-60
2023/01/03 01:26:40;;;;;;;39.40;27.17;;;;;;;5.01;100.00;147310.91;5091814;28;20188;-58
2023/01/03 01:29:08;;;;;;;34.00;22.13;;;;;;;5.11;100.00;147336.09;5091731;28;20230;-59
2023/01/03 01:31:34;;;;;;;39.10;23.33;;;;;;;4.88;100.00;147279.47;5092112;28;20192;-59
2023/01/03 01:34:01;;;;;;;28.37;21.03;;;;;;;4.99;100.00;147305.91;5091788;28;20191;-58
2023/01/03 01:36:30;;;;;;;27.60;21.27;;;;;;;4.82;100.00;147263.13;5091662;28;20200;-59
2023/01/03 01:38:58;;;;;;;40.00;26.97;;;;;;;4.99;100.00;147307.16;5092003;28;20176;-60
2023/01/03 01:44:54;;;;;;;39.17;25.77;;;;;;;5.23;100.00;105941.63;5091721;28;20527;-58
2023/01/03 01:47:27;;;;;;;42.23;28.73;;;;;;;5.26;100.00;80544.63;5055683;28;20207;-60
2023/01/03 01:50:00;;;;;;;47.00;31.40;;;;;;;5.38;100.00;64049.28;5091963;28;20180;-58
2023/01/03 01:52:29;;;;;;;32.47;22.03;;;;;;;5.38;100.00;66634.13;5091798;28;20267;-60
2023/01/03 01:54:58;;;;;;;28.03;20.33;;;;;;;5.20;100.00;93864.31;5091748;28;20219;-58
2023/01/03 01:57:26;;;;;;;39.40;21.73;;;;;;;5.09;100.00;119812.22;5091453;28;20199;-58
2023/01/03 01:59:53;;;;;;;28.33;20.70;;;;;;;4.89;100.00;141577.34;5091699;28;20574;-59
2023/01/03 02:02:22;;;;;;;26.80;21.20;;;;;;;4.80;100.00;145960.94;5091692;28;20193;-58
2023/01/03 02:04:54;;;;;;;26.60;20.87;;;;;;;4.78;100.00;147253.06;5091384;28;20185;-59
2023/01/03 02:07:22;;;;;;;35.20;20.97;;;;;;;4.65;100.00;146372.53;5091783;28;20195;-59
2023/01/03 02:09:52;;;;;;;33.80;23.90;;;;;;;4.70;100.00;138141.41;5091529;28;20184;-58
2023/01/03 02:15:21;;;;;;;30.07;21.57;;;;;;;4.71;100.00;131770.56;5091493;28;20188;-59
2023/01/03 02:18:00;;;;;;;39.60;21.30;;;;;;;4.56;100.00;138135.28;5091634;28;20191;-60
2023/01/03 02:20:50;;;;;;;28.90;19.97;;;;;;;4.50;100.00;130822.66;5091372;28;20316;-60
2023/01/03 02:23:50;;;;;;;29.60;21.87;;;;;;;4.64;100.00;133907.53;5091539;28;20550;-59
2023/01/03 02:26:47;;;;;;;34.57;22.30;;;;;;;4.41;100.00;144401.66;5091535;28;20579;-58
2023/01/03 02:29:54;;;;;;;38.23;21.20;;;;;;;4.33;100.00;139237.94;5091247;28;20308;-60
2023/01/03 02:32:34;;;;;;;32.60;20.67;;;;;;;4.28;100.00;132001.03;5091509;28;20547;-60
2023/01/03 02:35:06;;;;;;;29.37;21.37;;;;;;;4.27;100.00;128634.19;5091372;28;20190;-60
2023/01/03 02:37:47;;;;;;;32.37;22.43;;;;;;;4.33;100.00;118203.97;5091811;28;20210;-60
2023/01/03 02:40:22;;;;;;;38.27;21.20;;;;;;;4.36;100.00;108398.66;5094145;28;20207;-58
2023/01/03 02:43:01;;;;;;;29.00;21.20;;;;;;;4.37;100.00;109707.25;5095129;28;20187;-59
2023/01/03 02:45:58;;;;;;;27.10;20.33;;;;;;;4.36;100.00;105785.75;5095210;28;20192;-59
2023/01/03 02:48:36;;;;;;;35.70;19.97;;;;;;;3.98;100.00;100829.59;5094949;28;20639;-60
2023/01/03 02:51:10;;;;;;;35.23;20.90;;;;;;;3.98;100.00;93670.47;5094813;28;20179;-59
2023/01/03 02:53:41;;;;;;;26.60;19.70;;;;;;;3.99;100.00;94972.47;5095199;28;20188;-59
2023/01/03 02:56:12;;;;;;;29.20;19.20;;;;;;;4.00;100.00;95300.13;5095273;28;20191;-59
2023/01/03 02:58:43;;;;;;;28.60;20.17;;;;;;;3.89;100.00;98535.13;5094985;28;20188;-58
2023/01/03 03:01:13;;;;;;;28.50;18.53;;;;;;;3.79;100.00;90392.06;5094881;28;20662;-59
2023/01/03 03:03:41;;;;;;;30.83;19.90;;;;;;;3.90;100.00;82950.03;5094906;28;20706;-60
2023/01/03 03:06:14;;;;;;;33.67;20.57;;;;;;;3.65;100.00;78706.72;5094714;28;20187;-60
2023/01/03 03:08:44;;;;;;;27.17;18.63;;;;;;;3.88;100.00;79061.56;5094757;28;20211;-58
2023/01/03 03:14:02;;;;;;;25.13;20.43;;;;;;;3.97;100.00;81664.13;5094561;28;20179;-59
2023/01/03 03:16:50;;;;;;;31.77;19.37;;;;;;;3.93;100.00;82630.28;5094263;28;20254;-58
2023/01/03 03:25:13;;;;;;;20.87;18.63;;;;;;;3.49;100.00;82892.19;5094331;28;20207;-60
2023/01/03 03:30:30;;;;;;;24.23;19.20;;;;;;;3.48;100.00;76421.50;5094148;28;20175;-60
2023/01/03 03:33:04;;;;;;;23.50;18.90;;;;;;;3.62;100.00;69658.13;5094359;28;20707;-61
2023/01/03 03:35:39;;;;;;;27.50;18.87;;;;;;;3.77;100.00;62584.75;5094319;28;20184;-58
2023/01/03 03:38:11;;;;;;;26.80;18.90;;;;;;;3.85;100.00;72324.09;5094335;28;20499;-59
2023/01/03 03:46:21;;;;;;;27.13;19.10;;;;;;;3.40;100.00;88974.81;5093979;28;20179;-60
2023/01/03 03:51:50;;;;;;;34.37;19.47;;;;;;;3.52;100.00;82489.22;5077081;28;20188;-59
2023/01/03 03:54:21;;;;;;;24.40;19.40;;;;;;;3.63;100.00;79406.59;5094315;28;20527;-59
2023/01/03 03:56:54;;;;;;;32.50;20.73;;;;;;;3.72;100.00;72749.31;5094299;28;20188;-59
2023/01/03 03:59:23;;;;;;;29.87;19.13;;;;;;;3.85;100.00;73368.19;5094395;28;20619;-59
2023/01/03 04:01:52;;;;;;;31.10;19.63;;;;;;;3.88;100.00;79748.63;5094169;28;20670;-59
2023/01/03 04:04:24;;;;;;;23.70;19.50;;;;;;;3.84;100.00;84784.47;5093787;28;20188;-59
2023/01/03 04:06:53;;;;;;;28.50;20.37;;;;;;;3.97;100.00;82096.88;5094234;28;20674;-60
2023/01/03 04:09:20;;;;;;;26.53;20.50;;;;;;;3.89;100.00;83194.13;5093764;28;20184;-59
2023/01/03 04:11:47;;;;;;;29.63;21.43;;;;;;;4.02;100.00;86999.25;5093667;28;20554;-59
2023/01/03 04:14:14;;;;;;;25.87;20.30;;;;;;;4.12;100.00;82994.06;5093343;28;20204;-59
2023/01/03 04:16:41;;;;;;;40.10;20.20;;;;;;;4.21;100.00;81731.88;5093446;28;20195;-59
2023/01/03 04:19:08;;;;;;;28.00;19.40;;;;;;;4.19;100.00;87209.00;5093077;28;20188;-59
2023/01/03 04:21:36;;;;;;;28.53;18.67;;;;;;;3.98;100.00;100190.94;5092910;28;20204;-58
2023/01/03 04:24:04;;;;;;;32.07;20.60;;;;;;;3.89;100.00;94677.63;5093060;28;20180;-58
2023/01/03 04:26:32;;;;;;;35.90;22.47;;;;;;;4.00;100.00;85509.50;5093318;28;20519;-60
2023/01/03 04:28:59;;;;;;;37.77;23.90;;;;;;;4.00;100.00;75718.81;5092968;28;20253;-60
2023/01/03 04:31:25;;;;;;;35.07;22.30;;;;;;;4.21;100.00;69082.28;5092832;28;20285;-58
2023/01/03 04:33:53;;;;;;;32.63;22.57;;;;;;;4.30;100.00;63931.19;5093160;28;20184;-59
2023/01/03 04:36:20;;;;;;;34.63;21.93;;;;;;;4.34;100.00;63310.41;5092890;28;20245;-58
2023/01/03 04:38:47;;;;;;;33.30;21.40;;;;;;;4.40;100.00;65232.38;5093037;28;20662;-59
2023/01/03 04:41:15;;;;;;;30.37;21.00;;;;;;;4.31;100.00;69740.69;5092639;28;20207;-59
2023/01/03 04:46:26;;;;;;;29.37;21.73;;;;;;;4.21;100.00;74251.69;5092590;28;20187;-59
2023/01/03 04:48:53;;;;;;;34.87;22.77;;;;;;;4.05;100.00;71647.44;5092843;28;20581;-59
2023/01/03 04:51:20;;;;;;;39.40;22.27;;;;;;;3.99;100.00;69785.31;5092914;28;20579;-59
2023/01/03 04:53:47;;;;;;;41.67;22.07;;;;;;;3.90;100.00;67432.84;5092792;28;20211;-59
2023/01/03 04:56:15;;;;;;;32.47;20.50;;;;;;;3.61;100.00;66047.38;5092352;28;20187;-59
2023/01/03 04:58:42;;;;;;;27.67;20.53;;;;;;;3.61;100.00;62552.81;5092559;28;20190;-59
2023/01/03 05:01:09;;;;;;;40.17;21.50;;;;;;;3.71;100.00;61114.59;5092046;28;20211;-59
2023/01/03 05:03:37;;;;;;;39.60;21.07;;;;;;;3.62;100.00;61429.34;5092132;28;20184;-59
2023/01/03 05:06:07;;;;;;;59.80;31.73;;;;;;;3.70;100.00;58082.66;5092233;28;20188;-59
2023/01/03 05:08:34;;;;;;;70.43;39.50;;;;;;;3.78;100.00;56964.91;5092852;28;20215;-59
2023/01/03 05:11:01;;;;;;;79.73;46.53;;;;;;;3.86;100.00;51804.88;5092353;28;20187;-59
2023/01/03 05:13:29;;;;;;;118.87;60.83;;;;;;;4.03;100.00;45839.72;5092127;28;20192;-60
2023/01/03 05:15:56;;;;;;;97.67;51.37;;;;;;;4.14;100.00;40710.59;5092676;28;20184;-58
2023/01/03 05:18:23;;;;;;;154.60;79.03;;;;;;;4.12;100.00;36625.22;5092354;28;20188;-58
2023/01/03 05:26:20;;;;;;;201.87;104.43;;;;;;;4.55;100.00;24835.63;5092102;28;20179;-59
2023/01/03 05:28:52;;;;;;;207.83;108.43;;;;;;;4.56;100.00;23561.03;5091823;28;20243;-60
2023/01/03 05:31:19;;;;;;;213.10;115.40;;;;;;;4.64;100.00;23245.81;5091787;28;20188;-59
2023/01/03 05:33:47;;;;;;;210.30;115.93;;;;;;;4.50;100.00;22921.13;5092579;28;20187;-59
2023/01/03 05:36:13;;;;;;;224.33;119.63;;;;;;;4.56;100.00;22923.72;5091981;28;20196;-59
2023/01/03 05:38:40;;;;;;;213.00;119.37;;;;;;;4.51;100.00;22284.41;5092013;28;20180;-58
2023/01/03 05:41:07;;;;;;;219.67;116.87;;;;;;;4.64;100.00;23410.16;5091586;28;20236;-59
2023/01/03 05:43:34;;;;;;;227.60;118.70;;;;;;;4.68;100.00;24325.94;5091781;28;20188;-59
2023/01/03 05:46:02;;;;;;;221.40;117.50;;;;;;;4.52;100.00;25900.66;5092096;28;20188;-59
2023/01/03 05:48:29;;;;;;;216.07;113.10;;;;;;;4.60;100.00;28556.75;5091613;28;20184;-58
2023/01/03 05:50:57;;;;;;;209.83;108.90;;;;;;;4.64;100.00;29508.59;5090412;28;20195;-58
2023/01/03 05:53:24;;;;;;;218.70;112.07;;;;;;;4.65;100.00;31101.09;5091369;28;20275;-60
2023/01/03 05:55:51;;;;;;;220.87;106.43;;;;;;;4.67;100.00;31953.72;5091722;28;20554;-60
2023/01/03 05:58:18;;;;;;;209.20;108.27;;;;;;;4.72;100.00;33424.72;5091533;28;20590;-59
2023/01/03 06:00:45;;;;;;;192.90;107.07;;;;;;;4.78;100.00;35827.66;5091310;28;20686;-59
2023/01/03 06:03:13;;;;;;;212.53;112.03;;;;;;;4.90;100.00;39142.16;5090943;28;20196;-58
2023/01/03 06:05:40;;;;;;;207.70;109.93;;;;;;;4.95;100.00;42190.72;5091234;28;20626;-59
2023/01/03 06:08:07;;;;;;;215.23;111.93;;;;;;;4.99;100.00;46446.09;5091123;28;20188;-59
2023/01/03 06:10:34;;;;;;;214.23;106.40;;;;;;;5.05;100.00;49915.09;5091095;28;20188;-59
2023/01/03 06:13:00;;;;;;;215.03;109.43;;;;;;;5.31;100.00;51754.00;5091223;28;20512;-59
2023/01/03 06:15:27;;;;;;;215.43;110.27;;;;;;;5.56;100.00;59629.81;5094855;28;20195;-59
2023/01/03 06:17:58;;;;;;;201.23;108.20;;;;;;;5.79;100.00;69798.56;5095390;28;20262;-60
2023/01/03 06:20:27;;;;;;;223.20;108.53;;;;;;;6.06;100.00;77076.94;5095147;28;20241;-60
2023/01/03 06:22:54;;;;;;;219.17;102.37;;;;;;;6.46;100.00;88345.88;5095106;28;20187;-59
2023/01/03 06:25:21;;;;;;;194.73;98.40;;;;;;;6.87;100.00;116748.91;5095099;28;20262;-60
2023/01/03 06:27:48;;;;;;;203.77;98.33;;;;;;;7.28;100.00;142578.53;5095274;28;20242;-60
2023/01/03 06:30:15;;;;;;;174.17;95.03;;;;;;;7.67;100.00;147974.81;5095134;28;20184;-61
2023/01/03 06:32:43;;;;;;;158.93;89.40;;;;;;;8.03;100.00;148064.34;5095385;28;20609;-59
2023/01/03 06:35:10;;;;;;;153.50;85.60;;;;;;;8.59;100.00;148203.19;5094951;28;20180;-59
2023/01/03 06:37:38;;;;;;;167.30;84.53;;;;;;;9.12;100.00;148335.75;5095553;28;20203;-58
2023/01/03 06:40:07;;;;;;;154.47;80.80;;;;;;;9.60;100.00;148455.66;5095063;28;20294;-58
2023/01/03 06:42:41;;;;;;;155.90;73.10;;;;;;;9.98;100.00;148550.41;5095024;28;20208;-59
2023/01/03 06:53:30;;;;;;;122.67;61.17;;;;;;;11.04;100.00;148815.91;5095219;28;20191;-61
2023/01/03 06:55:58;;;;;;;125.07;61.20;;;;;;;11.52;100.00;148936.06;5094859;28;20646;-59
2023/01/03 06:58:25;;;;;;;116.63;56.13;;;;;;;12.07;100.00;149074.03;5095030;28;20210;-61
2023/01/03 07:00:52;;;;;;;119.27;57.00;;;;;;;12.18;100.00;149101.84;5094409;28;20223;-62
2023/01/03 07:03:19;;;;;;;122.33;54.97;;;;;;;12.69;100.00;149228.44;5094098;28;20188;-61
2023/01/03 07:05:46;;;;;;;104.97;55.50;;;;;;;12.57;100.00;149198.06;5094336;28;20231;-61
2023/01/03 07:08:13;;;;;;;106.00;53.83;;;;;;;12.94;100.00;149291.78;5093864;28;20195;-62
2023/01/03 07:10:41;;;;;;;115.60;53.20;;;;;;;13.07;100.00;149324.69;5094286;28;20627;-61
2023/01/03 07:15:52;;;;;;;92.87;49.03;;;;;;;14.16;100.00;149597.19;5094391;28;20677;-61
2023/01/03 07:18:22;;;;;;;87.10;48.43;;;;;;;14.58;100.00;149703.72;5094468;28;20214;-62
2023/01/03 07:20:49;;;;;;;89.57;48.10;;;;;;;14.77;100.00;149750.63;5095225;27;20291;-61
2023/01/03 07:23:16;;;;;;;86.23;48.07;;;;;;;14.65;100.00;149720.19;5094024;28;20184;-61
2023/01/03 07:25:44;;;;;;;88.10;48.97;;;;;;;15.15;100.00;149845.75;5093730;28;20184;-62
2023/01/03 07:28:13;;;;;;;96.10;51.27;;;;;;;14.95;100.00;149796.28;5094166;28;20227;-62
2023/01/03 07:30:40;;;;;;;109.00;56.00;;;;;;;16.08;100.00;150078.06;5093768;28;20184;-59
2023/01/03 07:33:10;;;;;;;98.97;54.73;;;;;;;15.86;100.00;150023.47;5093510;28;20271;-61
2023/01/03 07:35:38;;;;;;;90.90;52.67;;;;;;;16.08;100.00;150078.06;5093398;28;20203;-61
2023/01/03 07:38:06;;;;;;;80.27;50.97;;;;;;;16.21;100.00;150111.06;5093490;28;20195;-60
2023/01/03 07:40:33;;;;;;;69.73;46.30;;;;;;;16.05;100.00;150070.41;5093763;28;20189;-60
2023/01/03 07:45:46;;;;;;;77.60;44.10;;;;;;;16.16;100.00;150099.63;5093417;28;20176;-60
2023/01/03 07:48:14;;;;;;;99.00;44.83;;;;;;;16.48;100.00;150179.59;5093592;28;20218;-61
2023/01/03 07:50:41;;;;;;;86.50;42.87;;;;;;;17.00;96.18;150309.19;5093138;28;20198;-61
2023/01/03 07:53:15;;;;;;;77.87;41.07;;;;;;;17.46;92.99;150426.09;5093211;28;20496;-61
2023/01/03 07:55:42;;;;;;;68.43;41.90;;;;;;;17.28;92.09;150381.59;5093170;28;20192;-61
2023/01/03 07:58:10;;;;;;;74.67;42.93;;;;;;;17.78;89.82;150507.47;5093507;28;20554;-61
2023/01/03 08:00:37;;;;;;;75.77;43.77;;;;;;;18.11;85.66;150588.84;5093272;28;20514;-61
2023/01/03 08:03:04;;;;;;;84.10;45.40;;;;;;;18.36;85.19;150652.41;5092922;28;20208;-61
2023/01/03 08:05:33;;;;;;;60.03;44.10;;;;;;;18.56;83.70;150703.31;5092871;28;20188;-61
2023/01/03 08:07:59;;;;;;;68.83;47.30;;;;;;;18.93;82.88;150794.88;5093198;28;20681;-61
2023/01/03 08:13:18;;;;;;;71.72;45.47;;;;;;;18.99;82.57;150811.44;5093237;28;20476;-62
2023/01/03 08:15:50;;;;;;;62.65;42.65;;;;;;;19.52;79.39;150945.06;5093192;28;20196;-61
2023/01/03 08:18:19;;;;;;;79.68;41.22;;;;;;;20.88;71.56;151286.34;5092979;28;20184;-61
2023/01/03 08:20:46;;;;;;;70.00;41.78;;;;;;;21.70;66.40;151492.84;5092541;28;20235;-61
2023/01/03 08:23:15;;;;;;;95.93;42.90;;;;;;;23.38;59.86;151916.38;5092903;28;20643;-61
2023/01/03 08:25:42;;;;;;;54.28;39.08;;;;;;;23.50;56.00;151947.03;5091625;28;20199;-61
2023/01/03 08:28:10;;;;;;;50.95;37.50;;;;;;;24.27;53.16;152142.41;5073893;28;20240;-61
2023/01/03 08:30:42;;;;;;;45.10;37.13;;;;;;;23.47;53.15;151940.63;5089577;28;20639;-61
2023/01/03 08:33:12;;;;;;;52.33;36.17;;;;;;;23.02;55.86;151827.03;5089753;28;20670;-62
2023/01/03 08:35:42;;;;;;;77.65;39.42;;;;;;;22.96;56.32;151811.72;5091726;28;20196;-62
2023/01/03 08:38:12;;;;;;;54.90;35.08;;;;;;;23.37;53.81;151913.81;5090516;28;20729;-61
2023/01/03 08:40:41;;;;;;;68.25;35.70;;;;;;;23.16;55.04;151861.50;5092206;28;20201;-61
2023/01/03 08:43:10;;;;;;;60.25;37.63;;;;;;;23.78;52.96;152017.22;5092528;28;20321;-62
2023/01/03 08:45:39;;;;;;;61.95;36.60;;;;;;;23.16;54.51;151862.78;5091913;28;20196;-62
2023/01/03 08:48:08;;;;;;;67.90;33.97;;;;;;;23.31;54.05;151898.47;5091759;28;20199;-61
2023/01/03 08:50:36;;;;;;;55.45;32.55;;;;;;;24.62;50.26;152230.47;5092531;28;20202;-62
2023/01/03 08:53:04;;;;;;;52.80;33.10;;;;;;;23.75;52.13;152010.84;5092297;28;20188;-60
2023/01/03 08:55:32;;;;;;;51.38;34.72;;;;;;;23.41;54.05;151925.28;5092262;28;20515;-59
2023/01/03 08:58:01;;;;;;;49.22;33.55;;;;;;;23.11;55.70;151850.00;5092159;28;20669;-58
2023/01/03 09:00:29;;;;;;;53.65;31.95;;;;;;;24.62;52.25;152230.47;5091756;28;20204;-59
2023/01/03 09:02:59;;;;;;;38.55;29.88;;;;;;;25.30;50.01;152402.97;5092005;28;20203;-59
2023/01/03 09:05:28;;;;;;;34.90;29.73;;;;;;;26.89;46.21;152803.25;5091237;28;20191;-60
2023/01/03 09:07:56;;;;;;;38.88;28.92;;;;;;;26.75;45.57;152768.66;5092281;28;20198;-60
2023/01/03 09:10:24;;;;;;;46.63;29.38;;;;;;;26.76;45.26;152772.53;5092442;28;20739;-60
2023/01/03 09:12:51;;;;;;;49.10;30.55;;;;;;;26.46;45.72;152695.78;5092512;28;20184;-60
2023/01/03 09:15:18;;;;;;;54.00;29.45;;;;;;;26.46;45.89;152695.78;5089962;28;20611;-59
2023/01/03 09:17:48;;;;;;;46.85;29.67;;;;;;;27.13;44.20;152864.63;5092829;28;20188;-58
2023/01/03 09:20:17;;;;;;;65.60;29.65;;;;;;;27.33;44.54;152915.78;5092737;28;20180;-60
2023/01/03 09:22:46;;;;;;;41.83;28.50;;;;;;;27.91;43.77;153061.75;5082032;28;20212;-59
2023/01/03 09:25:14;;;;;;;37.78;27.67;;;;;;;27.83;42.02;153041.28;5090485;28;20210;-59
2023/01/03 09:27:46;;;;;;;40.95;25.08;;;;;;;27.35;42.68;152920.94;5089665;28;20224;-59
2023/01/03 09:30:28;;;;;;;32.75;25.15;;;;;;;27.24;42.50;152894.03;5087495;28;20187;-59
2023/01/03 09:32:57;;;;;;;33.78;25.42;;;;;;;27.53;42.51;152967.06;5078286;28;20548;-59
2023/01/03 09:35:25;;;;;;;39.97;23.42;;;;;;;27.82;42.50;153040.00;5090463;28;20207;-59
2023/01/03 09:37:52;;;;;;;44.75;25.70;;;;;;;27.54;42.96;152968.34;5091344;28;20195;-59
2023/01/03 09:40:19;;;;;;;29.02;24.17;;;;;;;27.85;42.28;153046.38;5091066;28;20362;-59
2023/01/03 09:45:33;;;;;;;39.08;24.02;;;;;;;27.81;42.58;153036.13;5090603;28;20531;-59
2023/01/03 09:48:01;;;;;;;44.80;25.13;;;;;;;27.50;42.24;152959.34;5090810;28;20319;-62
2023/01/03 09:50:33;;;;;;;30.27;23.70;;;;;;;27.27;43.56;152901.75;5091108;28;20210;-63
2023/01/03 10:04:46;;;;;;;36.10;23.77;;;;;;;27.80;42.88;153033.56;5074198;28;20243;-63
2023/01/03 10:07:32;;;;;;;35.47;24.77;;;;;;;28.83;41.53;153294.81;5092100;28;20186;-63
2023/01/03 10:10:10;;;;;;;37.22;23.92;;;;;;;29.36;40.57;153430.66;5091929;28;20215;-65
2023/01/03 10:12:48;;;;;;;30.88;25.45;;;;;;;29.08;40.41;153358.84;5092001;28;20184;-63
2023/01/03 10:15:29;;;;;;;34.88;25.50;;;;;;;28.50;41.49;153212.84;5091284;28;20215;-63
2023/01/03 10:18:07;;;;;;;28.88;26.02;;;;;;;28.22;41.98;153139.88;5091410;28;20191;-63
2023/01/03 10:20:43;;;;;;;30.60;26.05;;;;;;;28.59;41.83;153235.91;5091597;28;20184;-63
2023/01/03 10:23:12;;;;;;;36.65;25.98;;;;;;;28.39;41.82;153183.41;5091196;28;20211;-62
2023/01/03 10:25:43;;;;;;;41.33;24.30;;;;;;;29.25;40.92;153402.41;5091661;28;20206;-64
2023/01/03 10:28:17;;;;;;;29.23;23.83;;;;;;;28.89;40.95;153311.50;5091501;28;20239;-63
2023/01/03 10:31:03;;;;;;;35.47;21.35;;;;;;;28.42;41.81;153191.06;5092225;28;20195;-63
2023/01/03 10:33:33;;;;;;;34.40;21.92;;;;;;;29.09;41.08;153361.41;5091191;28;20252;-63
2023/01/03 10:36:01;;;;;;;28.67;21.02;;;;;;;28.13;42.02;153119.34;5091351;28;20200;-63
2023/01/03 10:38:29;;;;;;;24.90;19.40;;;;;;;28.67;41.99;153253.81;5091504;28;20188;-63
2023/01/03 10:40:58;;;;;;;21.98;18.55;;;;;;;29.72;40.02;153521.59;5091082;28;20214;-64
2023/01/03 10:43:32;;;;;;;27.20;18.50;;;;;;;28.73;41.57;153269.25;5090261;28;20620;-63
2023/01/03 10:46:01;;;;;;;19.95;18.10;;;;;;;28.90;40.56;153314.00;5091461;28;20192;-63
2023/01/03 10:48:39;;;;;;;29.95;19.52;;;;;;;28.96;41.06;153329.41;5092113;28;20184;-66
2023/01/03 10:51:21;;;;;;;31.17;18.77;;;;;;;28.93;41.54;153321.72;5092287;28;20180;-65
2023/01/03 10:53:51;;;;;;;17.75;16.00;;;;;;;29.14;40.87;153374.25;5091051;28;20191;-64
2023/01/03 10:56:18;;;;;;;22.70;16.23;;;;;;;29.77;39.67;153533.13;5090865;28;20656;-63
2023/01/03 10:58:45;;;;;;;23.50;15.77;;;;;;;29.58;39.17;153484.47;5091570;28;20188;-62
2023/01/03 11:01:21;;;;;;;26.52;15.68;;;;;;;29.90;39.25;153566.50;5093968;28;20185;-63
2023/01/03 11:04:06;;;;;;;21.42;15.68;;;;;;;30.32;38.11;153674.13;5094881;28;20683;-63
2023/01/03 11:06:34;;;;;;;32.85;15.73;;;;;;;30.44;38.47;153702.31;5094988;28;20238;-62
2023/01/03 11:09:05;;;;;;;18.73;15.60;;;;;;;30.49;38.48;153715.19;5094455;28;20191;-62
2023/01/03 11:11:34;;;;;;;17.98;15.18;;;;;;;31.16;37.44;153887.03;5094553;28;20203;-62
2023/01/03 11:14:21;;;;;;;15.52;13.98;;;;;;;31.78;36.15;154043.59;5094460;28;20188;-63
2023/01/03 11:16:54;;;;;;;26.88;14.60;;;;;;;30.87;37.29;153812.63;5095164;28;20530;-64
2023/01/03 11:19:21;;;;;;;15.82;14.35;;;;;;;31.13;36.89;153878.06;5094566;28;20564;-63
2023/01/03 11:21:57;;;;;;;30.05;14.20;;;;;;;31.44;36.08;153956.31;5094166;28;20187;-63
2023/01/03 11:24:48;;;;;;;15.50;13.85;;;;;;;30.99;36.71;153843.38;5094521;28;20523;-63
2023/01/03 11:27:29;;;;;;;28.13;15.68;;;;;;;31.06;37.11;153860.13;5085937;28;20593;-62
2023/01/03 11:30:14;;;;;;;25.27;15.30;;;;;;;31.06;37.09;153860.13;5094287;28;20180;-62
2023/01/03 11:33:12;;;;;;;15.35;14.05;;;;;;;31.24;36.81;153907.56;5094243;28;20571;-62
2023/01/03 11:35:52;;;;;;;15.95;14.27;;;;;;;30.58;37.62;153738.28;5094131;28;20184;-62
2023/01/03 11:38:39;;;;;;;16.00;14.45;;;;;;;30.12;38.38;153622.88;5094475;28;20192;-62
2023/01/03 11:41:27;;;;;;;21.30;13.23;;;;;;;29.28;39.22;153408.81;5094351;28;20260;-63
2023/01/03 11:44:10;;;;;;;14.95;13.60;;;;;;;27.16;42.27;152872.31;5094029;28;20204;-62
2023/01/03 11:46:51;;;;;;;14.55;13.35;;;;;;;25.64;46.29;152487.34;5094009;28;20188;-63
2023/01/03 11:49:26;;;;;;;21.63;15.15;;;;;;;24.55;50.44;152213.91;5093890;28;20211;-61
2023/01/03 11:52:07;;;;;;;16.48;14.23;;;;;;;23.53;55.87;151955.97;5093908;28;20183;-64
2023/01/03 11:55:03;;;;;;;22.20;16.02;;;;;;;22.41;64.89;151671.34;5093770;28;20187;-62
2023/01/03 11:57:39;;;;;;;16.02;14.57;;;;;;;21.68;71.46;151487.75;5093790;28;20274;-63
2023/01/03 12:00:15;;;;;;;22.67;14.93;;;;;;;21.39;75.60;151416.38;5094071;28;20188;-63
2023/01/03 12:03:00;;;;;;;15.55;13.98;;;;;;;21.10;78.04;151342.41;5093952;28;20211;-61
2023/01/03 12:05:40;;;;;;;22.70;15.07;;;;;;;20.90;80.71;151292.75;5093169;28;20233;-63
2023/01/03 12:08:21;;;;;;;24.33;17.50;;;;;;;20.69;84.73;151237.97;5093284;28;20219;-62
2023/01/03 12:10:54;;;;;;;25.02;15.55;;;;;;;20.55;86.75;151202.28;5092178;28;20202;-62
2023/01/03 12:13:34;;;;;;;22.50;16.10;;;;;;;20.49;87.76;151189.59;5092582;28;20661;-63
2023/01/03 12:16:08;;;;;;;22.53;18.07;;;;;;;20.29;90.27;151137.28;5092413;28;20198;-62
2023/01/03 12:18:43;;;;;;;18.30;15.23;;;;;;;20.25;90.43;151128.38;5093055;28;20240;-62
2023/01/03 12:21:15;;;;;;;25.33;17.47;;;;;;;20.12;91.15;151094.00;5072982;28;20501;-62
2023/01/03 12:23:47;;;;;;;28.23;17.63;;;;;;;19.97;93.29;151058.38;5072500;28;20209;-62
2023/01/03 12:26:16;;;;;;;28.43;18.57;;;;;;;19.82;93.78;151020.16;5073214;28;20263;-63
2023/01/03 12:29:04;;;;;;;25.07;18.70;;;;;;;19.81;94.82;151017.66;5088013;28;20391;-63
2023/01/03 12:31:35;;;;;;;37.53;19.50;;;;;;;19.70;96.90;150988.34;5111549;28;20191;-62